Ada, Minnesota
Current Conditions -  °F | °C
As of 4:15 PM on Sunday 23 Nov 2014 (Local Time) from K3N8 Reporting Station
Overcast Overcast  
Wind Chill: -6°   Ceiling: 2300
Heat Index:   Visibility: 10mi
Dew Point: -4°   Wind: 15mph
Humidity: 78%   Direction: 280°W
Pressure: 29.43"   Gusts: 21mph
Location:  47.3°N, 96.52°W
Report Text: K3N8 232215Z AUTO 28013G18KT 10SM BKN023 OVC029 00/M03 A2943 RMK AO2 T00001035
Loading
Personal Weather Stations






























Interactive Weather Map New forecast layout! Learn more

10-Day Weather Forecast

Advertisements
Track Severe Weather on mobile